sensor_id;sensor_type;location;lat;lon;timestamp;P1;durP1;ratioP1;P2;durP2;ratioP2
30335;SDS011;17142;47.990;7.846;2022-12-18T00:02:18;33.00;;;13.13;;
30335;SDS011;17142;47.990;7.846;2022-12-18T00:04:44;30.02;;;13.75;;
30335;SDS011;17142;47.990;7.846;2022-12-18T00:07:12;20.90;;;13.13;;
30335;SDS011;17142;47.990;7.846;2022-12-18T00:09:37;21.00;;;11.53;;
30335;SDS011;17142;47.990;7.846;2022-12-18T00:12:03;20.07;;;10.73;;
30335;SDS011;17142;47.990;7.846;2022-12-18T00:14:29;26.03;;;15.60;;
30335;SDS011;17142;47.990;7.846;2022-12-18T00:16:57;29.55;;;14.68;;
30335;SDS011;17142;47.990;7.846;2022-12-18T00:19:25;26.33;;;14.07;;
30335;SDS011;17142;47.990;7.846;2022-12-18T00:21:51;29.37;;;12.57;;
30335;SDS011;17142;47.990;7.846;2022-12-18T00:24:16;24.23;;;12.23;;
30335;SDS011;17142;47.990;7.846;2022-12-18T00:26:44;23.10;;;11.68;;
30335;SDS011;17142;47.990;7.846;2022-12-18T00:29:11;21.63;;;11.27;;
30335;SDS011;17142;47.990;7.846;2022-12-18T00:31:41;20.50;;;12.85;;
30335;SDS011;17142;47.990;7.846;2022-12-18T00:34:08;29.35;;;11.70;;
30335;SDS011;17142;47.990;7.846;2022-12-18T00:36:37;20.70;;;12.50;;
30335;SDS011;17142;47.990;7.846;2022-12-18T00:39:04;21.45;;;13.13;;
30335;SDS011;17142;47.990;7.846;2022-12-18T00:41:30;18.80;;;10.73;;
30335;SDS011;17142;47.990;7.846;2022-12-18T00:44:15;25.55;;;11.98;;
30335;SDS011;17142;47.990;7.846;2022-12-18T00:46:42;23.65;;;12.57;;
30335;SDS011;17142;47.990;7.846;2022-12-18T00:49:14;23.95;;;12.07;;
30335;SDS011;17142;47.990;7.846;2022-12-18T00:51:45;24.08;;;12.75;;
30335;SDS011;17142;47.990;7.846;2022-12-18T00:54:12;27.27;;;13.35;;
30335;SDS011;17142;47.990;7.846;2022-12-18T00:56:38;24.00;;;11.20;;
30335;SDS011;17142;47.990;7.846;2022-12-18T00:59:05;22.90;;;11.63;;
30335;SDS011;17142;47.990;7.846;2022-12-18T01:01:33;21.02;;;9.85;;
30335;SDS011;17142;47.990;7.846;2022-12-18T01:04:00;18.10;;;10.70;;
30335;SDS011;17142;47.990;7.846;2022-12-18T01:06:26;21.42;;;11.65;;
30335;SDS011;17142;47.990;7.846;2022-12-18T01:08:54;23.27;;;13.75;;
30335;SDS011;17142;47.990;7.846;2022-12-18T01:11:20;19.00;;;10.87;;
30335;SDS011;17142;47.990;7.846;2022-12-18T01:13:48;19.80;;;12.68;;
30335;SDS011;17142;47.990;7.846;2022-12-18T01:16:15;26.23;;;13.93;;
30335;SDS011;17142;47.990;7.846;2022-12-18T01:18:44;19.20;;;13.73;;
30335;SDS011;17142;47.990;7.846;2022-12-18T01:21:12;22.85;;;11.85;;
30335;SDS011;17142;47.990;7.846;2022-12-18T01:23:40;17.88;;;10.70;;
30335;SDS011;17142;47.990;7.846;2022-12-18T01:26:10;17.27;;;11.75;;
30335;SDS011;17142;47.990;7.846;2022-12-18T01:28:37;25.60;;;12.48;;
30335;SDS011;17142;47.990;7.846;2022-12-18T01:31:14;18.70;;;11.80;;
30335;SDS011;17142;47.990;7.846;2022-12-18T01:33:48;19.10;;;11.30;;
30335;SDS011;17142;47.990;7.846;2022-12-18T01:36:18;22.60;;;12.85;;
30335;SDS011;17142;47.990;7.846;2022-12-18T01:38:55;18.70;;;12.80;;
30335;SDS011;17142;47.990;7.846;2022-12-18T01:41:25;17.25;;;10.35;;
30335;SDS011;17142;47.990;7.846;2022-12-18T01:47:20;13.93;;;10.48;;
30335;SDS011;17142;47.990;7.846;2022-12-18T01:50:02;15.23;;;9.93;;
30335;SDS011;17142;47.990;7.846;2022-12-18T01:52:48;17.48;;;9.75;;
30335;SDS011;17142;47.990;7.846;2022-12-18T01:55:25;18.17;;;12.00;;
30335;SDS011;17142;47.990;7.846;2022-12-18T01:57:53;15.68;;;10.10;;
30335;SDS011;17142;47.990;7.846;2022-12-18T02:00:22;29.10;;;13.68;;
30335;SDS011;17142;47.990;7.846;2022-12-18T02:02:51;29.88;;;11.93;;
30335;SDS011;17142;47.990;7.846;2022-12-18T02:05:29;21.85;;;11.40;;
30335;SDS011;17142;47.990;7.846;2022-12-18T02:08:26;18.60;;;10.38;;
30335;SDS011;17142;47.990;7.846;2022-12-18T02:11:10;15.73;;;10.93;;
30335;SDS011;17142;47.990;7.846;2022-12-18T02:16:30;15.20;;;9.70;;
30335;SDS011;17142;47.990;7.846;2022-12-18T02:19:08;16.80;;;9.88;;
30335;SDS011;17142;47.990;7.846;2022-12-18T02:24:54;18.45;;;10.65;;
30335;SDS011;17142;47.990;7.846;2022-12-18T02:27:40;15.98;;;10.68;;
30335;SDS011;17142;47.990;7.846;2022-12-18T02:30:11;14.82;;;10.88;;
30335;SDS011;17142;47.990;7.846;2022-12-18T02:32:38;22.30;;;10.82;;
30335;SDS011;17142;47.990;7.846;2022-12-18T02:35:08;23.30;;;13.15;;
30335;SDS011;17142;47.990;7.846;2022-12-18T02:37:39;14.57;;;10.25;;
30335;SDS011;17142;47.990;7.846;2022-12-18T02:40:07;21.02;;;13.10;;
30335;SDS011;17142;47.990;7.846;2022-12-18T02:42:34;22.67;;;10.73;;
30335;SDS011;17142;47.990;7.846;2022-12-18T02:45:00;18.20;;;11.00;;
30335;SDS011;17142;47.990;7.846;2022-12-18T02:47:29;18.20;;;12.38;;
30335;SDS011;17142;47.990;7.846;2022-12-18T02:50:02;28.05;;;12.27;;
30335;SDS011;17142;47.990;7.846;2022-12-18T02:52:53;22.55;;;12.68;;
30335;SDS011;17142;47.990;7.846;2022-12-18T03:01:30;18.33;;;12.23;;
30335;SDS011;17142;47.990;7.846;2022-12-18T03:04:13;33.80;;;14.73;;
30335;SDS011;17142;47.990;7.846;2022-12-18T03:06:43;25.27;;;13.70;;
30335;SDS011;17142;47.990;7.846;2022-12-18T03:09:14;23.23;;;13.00;;
30335;SDS011;17142;47.990;7.846;2022-12-18T03:11:47;25.25;;;11.18;;
30335;SDS011;17142;47.990;7.846;2022-12-18T03:14:37;22.35;;;11.25;;
30335;SDS011;17142;47.990;7.846;2022-12-18T03:17:05;21.83;;;9.90;;
30335;SDS011;17142;47.990;7.846;2022-12-18T03:19:35;18.73;;;12.27;;
30335;SDS011;17142;47.990;7.846;2022-12-18T03:22:04;20.35;;;10.48;;
30335;SDS011;17142;47.990;7.846;2022-12-18T03:24:32;21.45;;;13.23;;
30335;SDS011;17142;47.990;7.846;2022-12-18T03:27:00;22.38;;;11.43;;
30335;SDS011;17142;47.990;7.846;2022-12-18T03:29:30;29.13;;;14.65;;
30335;SDS011;17142;47.990;7.846;2022-12-18T03:32:10;26.75;;;12.35;;
30335;SDS011;17142;47.990;7.846;2022-12-18T03:34:40;20.65;;;12.05;;
30335;SDS011;17142;47.990;7.846;2022-12-18T03:37:08;22.92;;;11.00;;
30335;SDS011;17142;47.990;7.846;2022-12-18T03:39:34;21.00;;;11.57;;
30335;SDS011;17142;47.990;7.846;2022-12-18T03:45:08;20.17;;;11.52;;
30335;SDS011;17142;47.990;7.846;2022-12-18T03:47:42;15.73;;;8.48;;
30335;SDS011;17142;47.990;7.846;2022-12-18T03:50:27;15.63;;;9.20;;
30335;SDS011;17142;47.990;7.846;2022-12-18T03:53:47;16.85;;;9.13;;
30335;SDS011;17142;47.990;7.846;2022-12-18T03:55:50;18.33;;;12.00;;
30335;SDS011;17142;47.990;7.846;2022-12-18T03:58:20;13.73;;;9.43;;
30335;SDS011;17142;47.990;7.846;2022-12-18T04:00:50;15.98;;;9.45;;
30335;SDS011;17142;47.990;7.846;2022-12-18T04:03:21;17.77;;;10.43;;
30335;SDS011;17142;47.990;7.846;2022-12-18T04:05:51;15.43;;;9.98;;
30335;SDS011;17142;47.990;7.846;2022-12-18T04:08:19;11.88;;;8.05;;
30335;SDS011;17142;47.990;7.846;2022-12-18T04:10:46;17.73;;;9.80;;
30335;SDS011;17142;47.990;7.846;2022-12-18T04:13:12;21.00;;;11.57;;
30335;SDS011;17142;47.990;7.846;2022-12-18T04:15:48;22.45;;;10.80;;
30335;SDS011;17142;47.990;7.846;2022-12-18T04:18:14;21.00;;;11.90;;
30335;SDS011;17142;47.990;7.846;2022-12-18T04:20:41;16.25;;;12.10;;
30335;SDS011;17142;47.990;7.846;2022-12-18T04:23:07;17.90;;;10.83;;
30335;SDS011;17142;47.990;7.846;2022-12-18T04:25:32;18.03;;;8.97;;
30335;SDS011;17142;47.990;7.846;2022-12-18T04:27:58;17.63;;;10.27;;
30335;SDS011;17142;47.990;7.846;2022-12-18T04:30:23;12.23;;;7.80;;
30335;SDS011;17142;47.990;7.846;2022-12-18T04:32:49;27.97;;;13.10;;
30335;SDS011;17142;47.990;7.846;2022-12-18T04:35:15;15.03;;;9.50;;
30335;SDS011;17142;47.990;7.846;2022-12-18T04:37:40;17.60;;;9.47;;
30335;SDS011;17142;47.990;7.846;2022-12-18T04:40:06;20.73;;;9.70;;
30335;SDS011;17142;47.990;7.846;2022-12-18T04:42:37;13.63;;;8.70;;
30335;SDS011;17142;47.990;7.846;2022-12-18T04:45:03;12.02;;;8.55;;
30335;SDS011;17142;47.990;7.846;2022-12-18T04:47:30;16.92;;;10.23;;
30335;SDS011;17142;47.990;7.846;2022-12-18T04:49:55;20.70;;;10.60;;
30335;SDS011;17142;47.990;7.846;2022-12-18T04:52:21;14.23;;;8.43;;
30335;SDS011;17142;47.990;7.846;2022-12-18T04:54:51;12.57;;;8.27;;
30335;SDS011;17142;47.990;7.846;2022-12-18T04:57:17;15.17;;;9.63;;
30335;SDS011;17142;47.990;7.846;2022-12-18T04:59:45;17.23;;;9.13;;
30335;SDS011;17142;47.990;7.846;2022-12-18T05:02:13;13.55;;;8.77;;
30335;SDS011;17142;47.990;7.846;2022-12-18T05:04:41;14.38;;;9.63;;
30335;SDS011;17142;47.990;7.846;2022-12-18T05:07:09;15.70;;;8.23;;
30335;SDS011;17142;47.990;7.846;2022-12-18T05:09:37;11.13;;;7.20;;
30335;SDS011;17142;47.990;7.846;2022-12-18T05:12:02;11.90;;;8.13;;
30335;SDS011;17142;47.990;7.846;2022-12-18T05:14:28;13.77;;;8.80;;
30335;SDS011;17142;47.990;7.846;2022-12-18T05:16:54;11.50;;;7.55;;
30335;SDS011;17142;47.990;7.846;2022-12-18T05:19:22;11.20;;;9.23;;
30335;SDS011;17142;47.990;7.846;2022-12-18T05:21:48;8.90;;;7.80;;
30335;SDS011;17142;47.990;7.846;2022-12-18T05:24:13;13.10;;;9.10;;
30335;SDS011;17142;47.990;7.846;2022-12-18T05:26:39;13.53;;;7.70;;
30335;SDS011;17142;47.990;7.846;2022-12-18T05:29:04;11.20;;;7.73;;
30335;SDS011;17142;47.990;7.846;2022-12-18T05:31:35;14.65;;;9.50;;
30335;SDS011;17142;47.990;7.846;2022-12-18T05:34:00;8.90;;;6.88;;
30335;SDS011;17142;47.990;7.846;2022-12-18T05:36:28;16.00;;;7.32;;
30335;SDS011;17142;47.990;7.846;2022-12-18T05:38:53;16.83;;;9.50;;
30335;SDS011;17142;47.990;7.846;2022-12-18T05:41:19;11.20;;;7.83;;
30335;SDS011;17142;47.990;7.846;2022-12-18T05:43:45;7.67;;;6.00;;
30335;SDS011;17142;47.990;7.846;2022-12-18T05:46:14;12.40;;;6.78;;
30335;SDS011;17142;47.990;7.846;2022-12-18T05:48:42;12.00;;;6.20;;
30335;SDS011;17142;47.990;7.846;2022-12-18T05:51:10;10.43;;;7.07;;
30335;SDS011;17142;47.990;7.846;2022-12-18T05:53:39;8.73;;;7.40;;
30335;SDS011;17142;47.990;7.846;2022-12-18T05:56:06;8.85;;;6.35;;
30335;SDS011;17142;47.990;7.846;2022-12-18T05:58:36;16.48;;;7.55;;
30335;SDS011;17142;47.990;7.846;2022-12-18T06:01:06;9.30;;;5.68;;
30335;SDS011;17142;47.990;7.846;2022-12-18T06:03:41;15.13;;;6.60;;
30335;SDS011;17142;47.990;7.846;2022-12-18T06:06:17;15.35;;;6.95;;
30335;SDS011;17142;47.990;7.846;2022-12-18T06:08:45;10.77;;;6.32;;
30335;SDS011;17142;47.990;7.846;2022-12-18T06:11:15;15.75;;;7.45;;
30335;SDS011;17142;47.990;7.846;2022-12-18T06:13:49;7.50;;;6.00;;
30335;SDS011;17142;47.990;7.846;2022-12-18T06:16:15;10.25;;;6.25;;
30335;SDS011;17142;47.990;7.846;2022-12-18T06:18:40;9.70;;;6.30;;
30335;SDS011;17142;47.990;7.846;2022-12-18T06:21:06;8.10;;;6.13;;
30335;SDS011;17142;47.990;7.846;2022-12-18T06:23:37;9.52;;;5.15;;
30335;SDS011;17142;47.990;7.846;2022-12-18T06:26:05;8.40;;;5.90;;
30335;SDS011;17142;47.990;7.846;2022-12-18T06:28:32;11.63;;;6.57;;
30335;SDS011;17142;47.990;7.846;2022-12-18T06:31:00;7.70;;;3.17;;
30335;SDS011;17142;47.990;7.846;2022-12-18T06:33:27;16.50;;;9.63;;
30335;SDS011;17142;47.990;7.846;2022-12-18T06:36:05;8.73;;;4.95;;
30335;SDS011;17142;47.990;7.846;2022-12-18T06:38:33;9.70;;;6.07;;
30335;SDS011;17142;47.990;7.846;2022-12-18T06:41:00;8.45;;;6.05;;
30335;SDS011;17142;47.990;7.846;2022-12-18T06:43:31;8.35;;;5.88;;
30335;SDS011;17142;47.990;7.846;2022-12-18T06:46:00;11.18;;;7.40;;
30335;SDS011;17142;47.990;7.846;2022-12-18T06:48:28;16.88;;;7.47;;
30335;SDS011;17142;47.990;7.846;2022-12-18T06:50:54;7.30;;;5.37;;
30335;SDS011;17142;47.990;7.846;2022-12-18T06:53:19;14.93;;;6.40;;
30335;SDS011;17142;47.990;7.846;2022-12-18T06:55:45;12.80;;;6.97;;
30335;SDS011;17142;47.990;7.846;2022-12-18T06:58:13;14.07;;;7.47;;
30335;SDS011;17142;47.990;7.846;2022-12-18T07:00:39;16.33;;;7.75;;
30335;SDS011;17142;47.990;7.846;2022-12-18T07:03:04;11.83;;;9.03;;
30335;SDS011;17142;47.990;7.846;2022-12-18T07:05:30;10.07;;;6.73;;
30335;SDS011;17142;47.990;7.846;2022-12-18T07:07:58;10.88;;;8.13;;
30335;SDS011;17142;47.990;7.846;2022-12-18T07:10:25;15.38;;;7.60;;
30335;SDS011;17142;47.990;7.846;2022-12-18T07:12:51;10.80;;;7.13;;
30335;SDS011;17142;47.990;7.846;2022-12-18T07:15:19;13.65;;;7.88;;
30335;SDS011;17142;47.990;7.846;2022-12-18T07:17:44;8.67;;;5.50;;
30335;SDS011;17142;47.990;7.846;2022-12-18T07:20:10;8.97;;;6.00;;
30335;SDS011;17142;47.990;7.846;2022-12-18T07:22:36;10.03;;;5.73;;
30335;SDS011;17142;47.990;7.846;2022-12-18T07:25:01;9.07;;;4.97;;
30335;SDS011;17142;47.990;7.846;2022-12-18T07:27:27;7.87;;;4.60;;
30335;SDS011;17142;47.990;7.846;2022-12-18T07:29:55;7.78;;;6.70;;
30335;SDS011;17142;47.990;7.846;2022-12-18T07:32:23;8.90;;;5.68;;
30335;SDS011;17142;47.990;7.846;2022-12-18T07:34:49;12.07;;;6.60;;
30335;SDS011;17142;47.990;7.846;2022-12-18T07:37:19;14.25;;;7.35;;
30335;SDS011;17142;47.990;7.846;2022-12-18T07:39:44;11.85;;;6.97;;
30335;SDS011;17142;47.990;7.846;2022-12-18T07:42:12;12.20;;;7.07;;
30335;SDS011;17142;47.990;7.846;2022-12-18T07:45:02;13.18;;;7.13;;
30335;SDS011;17142;47.990;7.846;2022-12-18T07:47:34;9.05;;;5.20;;
30335;SDS011;17142;47.990;7.846;2022-12-18T07:50:01;7.07;;;5.47;;
30335;SDS011;17142;47.990;7.846;2022-12-18T07:52:28;12.05;;;7.13;;
30335;SDS011;17142;47.990;7.846;2022-12-18T07:54:53;7.50;;;6.30;;
30335;SDS011;17142;47.990;7.846;2022-12-18T07:57:23;9.75;;;5.90;;
30335;SDS011;17142;47.990;7.846;2022-12-18T07:59:49;10.50;;;7.15;;
30335;SDS011;17142;47.990;7.846;2022-12-18T08:02:15;15.23;;;9.20;;
30335;SDS011;17142;47.990;7.846;2022-12-18T08:04:42;13.65;;;7.57;;
30335;SDS011;17142;47.990;7.846;2022-12-18T08:07:08;10.67;;;7.27;;
30335;SDS011;17142;47.990;7.846;2022-12-18T08:09:36;10.32;;;7.57;;
30335;SDS011;17142;47.990;7.846;2022-12-18T08:12:04;12.43;;;8.77;;
30335;SDS011;17142;47.990;7.846;2022-12-18T08:14:30;19.17;;;10.00;;
30335;SDS011;17142;47.990;7.846;2022-12-18T08:16:55;16.57;;;8.63;;
30335;SDS011;17142;47.990;7.846;2022-12-18T08:19:23;14.77;;;7.95;;
30335;SDS011;17142;47.990;7.846;2022-12-18T08:21:51;12.38;;;7.32;;
30335;SDS011;17142;47.990;7.846;2022-12-18T08:24:17;16.40;;;7.57;;
30335;SDS011;17142;47.990;7.846;2022-12-18T08:26:42;12.83;;;7.93;;
30335;SDS011;17142;47.990;7.846;2022-12-18T08:29:08;17.07;;;7.70;;
30335;SDS011;17142;47.990;7.846;2022-12-18T08:31:36;9.77;;;7.85;;
30335;SDS011;17142;47.990;7.846;2022-12-18T08:34:02;10.87;;;8.23;;
30335;SDS011;17142;47.990;7.846;2022-12-18T08:36:27;10.40;;;8.50;;
30335;SDS011;17142;47.990;7.846;2022-12-18T08:38:56;12.32;;;9.40;;
30335;SDS011;17142;47.990;7.846;2022-12-18T08:41:22;13.32;;;9.18;;
30335;SDS011;17142;47.990;7.846;2022-12-18T08:43:47;19.87;;;9.17;;
30335;SDS011;17142;47.990;7.846;2022-12-18T08:46:39;19.90;;;9.35;;
30335;SDS011;17142;47.990;7.846;2022-12-18T08:49:06;12.50;;;7.45;;
30335;SDS011;17142;47.990;7.846;2022-12-18T08:51:33;11.70;;;9.00;;
30335;SDS011;17142;47.990;7.846;2022-12-18T08:53:59;11.10;;;7.93;;
30335;SDS011;17142;47.990;7.846;2022-12-18T08:56:25;10.10;;;7.57;;
30335;SDS011;17142;47.990;7.846;2022-12-18T08:58:51;11.67;;;10.47;;
30335;SDS011;17142;47.990;7.846;2022-12-18T09:01:20;13.68;;;9.73;;
30335;SDS011;17142;47.990;7.846;2022-12-18T09:03:46;17.75;;;9.15;;
30335;SDS011;17142;47.990;7.846;2022-12-18T09:06:16;16.65;;;10.32;;
30335;SDS011;17142;47.990;7.846;2022-12-18T09:08:45;14.98;;;8.98;;
30335;SDS011;17142;47.990;7.846;2022-12-18T09:11:22;21.92;;;9.32;;
30335;SDS011;17142;47.990;7.846;2022-12-18T09:13:52;11.70;;;6.60;;
30335;SDS011;17142;47.990;7.846;2022-12-18T09:16:19;12.00;;;7.45;;
30335;SDS011;17142;47.990;7.846;2022-12-18T09:18:45;12.07;;;8.57;;
30335;SDS011;17142;47.990;7.846;2022-12-18T09:21:14;18.73;;;11.15;;
30335;SDS011;17142;47.990;7.846;2022-12-18T09:23:43;21.35;;;10.07;;
30335;SDS011;17142;47.990;7.846;2022-12-18T09:26:14;22.33;;;11.05;;
30335;SDS011;17142;47.990;7.846;2022-12-18T09:28:39;19.70;;;12.77;;
30335;SDS011;17142;47.990;7.846;2022-12-18T09:31:06;18.90;;;12.07;;
30335;SDS011;17142;47.990;7.846;2022-12-18T09:33:35;17.67;;;10.40;;
30335;SDS011;17142;47.990;7.846;2022-12-18T09:36:05;17.73;;;10.95;;
30335;SDS011;17142;47.990;7.846;2022-12-18T09:38:32;15.18;;;9.88;;
30335;SDS011;17142;47.990;7.846;2022-12-18T09:41:05;22.75;;;12.15;;
30335;SDS011;17142;47.990;7.846;2022-12-18T09:43:49;24.45;;;13.10;;
30335;SDS011;17142;47.990;7.846;2022-12-18T09:46:20;26.95;;;12.25;;
30335;SDS011;17142;47.990;7.846;2022-12-18T09:48:52;28.05;;;13.27;;
30335;SDS011;17142;47.990;7.846;2022-12-18T09:54:25;21.75;;;14.52;;
30335;SDS011;17142;47.990;7.846;2022-12-18T09:56:57;19.45;;;12.50;;
30335;SDS011;17142;47.990;7.846;2022-12-18T09:59:24;24.20;;;13.30;;
30335;SDS011;17142;47.990;7.846;2022-12-18T10:02:14;20.00;;;13.02;;
30335;SDS011;17142;47.990;7.846;2022-12-18T10:04:41;28.65;;;15.32;;
30335;SDS011;17142;47.990;7.846;2022-12-18T10:07:19;25.55;;;13.68;;
30335;SDS011;17142;47.990;7.846;2022-12-18T10:09:58;27.33;;;15.73;;
30335;SDS011;17142;47.990;7.846;2022-12-18T10:18:16;27.73;;;13.05;;
30335;SDS011;17142;47.990;7.846;2022-12-18T10:21:13;25.38;;;13.20;;
30335;SDS011;17142;47.990;7.846;2022-12-18T10:24:04;21.58;;;14.45;;
30335;SDS011;17142;47.990;7.846;2022-12-18T10:26:44;21.77;;;14.40;;
30335;SDS011;17142;47.990;7.846;2022-12-18T10:29:12;28.80;;;15.75;;
30335;SDS011;17142;47.990;7.846;2022-12-18T10:31:41;27.63;;;13.57;;
30335;SDS011;17142;47.990;7.846;2022-12-18T10:34:10;23.97;;;14.00;;
30335;SDS011;17142;47.990;7.846;2022-12-18T10:36:39;21.85;;;12.70;;
30335;SDS011;17142;47.990;7.846;2022-12-18T10:39:19;22.05;;;13.05;;
30335;SDS011;17142;47.990;7.846;2022-12-18T10:41:51;18.83;;;13.25;;
30335;SDS011;17142;47.990;7.846;2022-12-18T10:44:21;19.77;;;12.15;;
30335;SDS011;17142;47.990;7.846;2022-12-18T10:46:48;14.18;;;11.55;;
30335;SDS011;17142;47.990;7.846;2022-12-18T10:49:25;14.43;;;10.48;;
30335;SDS011;17142;47.990;7.846;2022-12-18T10:54:48;19.38;;;12.85;;
30335;SDS011;17142;47.990;7.846;2022-12-18T10:59:57;25.08;;;14.40;;
30335;SDS011;17142;47.990;7.846;2022-12-18T11:02:25;33.97;;;18.33;;
30335;SDS011;17142;47.990;7.846;2022-12-18T11:04:53;32.42;;;15.90;;
30335;SDS011;17142;47.990;7.846;2022-12-18T11:07:19;24.03;;;14.53;;
30335;SDS011;17142;47.990;7.846;2022-12-18T11:09:45;25.30;;;16.23;;
30335;SDS011;17142;47.990;7.846;2022-12-18T11:12:30;23.90;;;17.10;;
30335;SDS011;17142;47.990;7.846;2022-12-18T11:15:01;30.03;;;15.00;;
30335;SDS011;17142;47.990;7.846;2022-12-18T11:19:56;30.10;;;15.90;;
30335;SDS011;17142;47.990;7.846;2022-12-18T11:27:25;25.88;;;15.90;;
30335;SDS011;17142;47.990;7.846;2022-12-18T11:29:51;31.70;;;15.77;;
30335;SDS011;17142;47.990;7.846;2022-12-18T11:37:48;30.35;;;15.88;;
30335;SDS011;17142;47.990;7.846;2022-12-18T11:40:26;24.60;;;15.40;;
30335;SDS011;17142;47.990;7.846;2022-12-18T11:45:34;32.47;;;15.32;;
30335;SDS011;17142;47.990;7.846;2022-12-18T11:48:13;26.45;;;15.60;;
30335;SDS011;17142;47.990;7.846;2022-12-18T11:50:53;31.17;;;17.70;;
30335;SDS011;17142;47.990;7.846;2022-12-18T11:53:21;27.25;;;15.00;;
30335;SDS011;17142;47.990;7.846;2022-12-18T11:55:49;33.63;;;17.48;;
30335;SDS011;17142;47.990;7.846;2022-12-18T11:58:24;38.25;;;16.13;;
30335;SDS011;17142;47.990;7.846;2022-12-18T12:09:22;27.95;;;16.42;;
30335;SDS011;17142;47.990;7.846;2022-12-18T12:17:42;29.90;;;17.70;;
30335;SDS011;17142;47.990;7.846;2022-12-18T12:20:21;24.33;;;14.50;;
30335;SDS011;17142;47.990;7.846;2022-12-18T12:25:43;29.73;;;17.35;;
30335;SDS011;17142;47.990;7.846;2022-12-18T12:36:33;24.38;;;14.05;;
30335;SDS011;17142;47.990;7.846;2022-12-18T12:39:23;26.65;;;16.35;;
30335;SDS011;17142;47.990;7.846;2022-12-18T12:41:59;30.77;;;17.38;;
30335;SDS011;17142;47.990;7.846;2022-12-18T12:44:51;24.45;;;15.82;;
30335;SDS011;17142;47.990;7.846;2022-12-18T12:47:30;32.78;;;17.67;;
30335;SDS011;17142;47.990;7.846;2022-12-18T12:50:06;34.25;;;17.33;;
30335;SDS011;17142;47.990;7.846;2022-12-18T12:52:40;33.80;;;17.88;;
30335;SDS011;17142;47.990;7.846;2022-12-18T12:55:21;27.50;;;17.38;;
30335;SDS011;17142;47.990;7.846;2022-12-18T13:00:23;24.65;;;14.80;;
30335;SDS011;17142;47.990;7.846;2022-12-18T13:02:56;27.80;;;15.25;;
30335;SDS011;17142;47.990;7.846;2022-12-18T13:05:57;33.70;;;18.08;;
30335;SDS011;17142;47.990;7.846;2022-12-18T13:08:26;30.10;;;15.95;;
30335;SDS011;17142;47.990;7.846;2022-12-18T13:10:58;31.30;;;17.30;;
30335;SDS011;17142;47.990;7.846;2022-12-18T13:13:53;33.60;;;17.17;;
30335;SDS011;17142;47.990;7.846;2022-12-18T13:16:23;28.80;;;17.70;;
30335;SDS011;17142;47.990;7.846;2022-12-18T13:18:53;31.55;;;17.38;;
30335;SDS011;17142;47.990;7.846;2022-12-18T13:21:28;23.50;;;16.00;;
30335;SDS011;17142;47.990;7.846;2022-12-18T13:23:56;34.65;;;17.17;;
30335;SDS011;17142;47.990;7.846;2022-12-18T13:26:33;28.85;;;16.13;;
30335;SDS011;17142;47.990;7.846;2022-12-18T13:28:59;27.20;;;14.93;;
30335;SDS011;17142;47.990;7.846;2022-12-18T13:36:48;23.05;;;16.00;;
30335;SDS011;17142;47.990;7.846;2022-12-18T13:41:42;21.70;;;13.07;;
30335;SDS011;17142;47.990;7.846;2022-12-18T13:46:53;22.48;;;13.88;;
30335;SDS011;17142;47.990;7.846;2022-12-18T13:49:21;18.50;;;10.73;;
30335;SDS011;17142;47.990;7.846;2022-12-18T13:51:50;17.75;;;10.65;;
30335;SDS011;17142;47.990;7.846;2022-12-18T13:54:19;18.67;;;11.35;;
30335;SDS011;17142;47.990;7.846;2022-12-18T13:56:55;22.85;;;14.85;;
30335;SDS011;17142;47.990;7.846;2022-12-18T13:59:26;15.25;;;12.68;;
30335;SDS011;17142;47.990;7.846;2022-12-18T14:02:09;13.68;;;10.00;;
30335;SDS011;17142;47.990;7.846;2022-12-18T14:04:38;14.38;;;9.32;;
30335;SDS011;17142;47.990;7.846;2022-12-18T14:07:07;17.92;;;11.57;;
30335;SDS011;17142;47.990;7.846;2022-12-18T14:09:40;16.55;;;10.10;;
30335;SDS011;17142;47.990;7.846;2022-12-18T14:12:20;20.25;;;12.10;;
30335;SDS011;17142;47.990;7.846;2022-12-18T14:20:19;16.30;;;10.53;;
30335;SDS011;17142;47.990;7.846;2022-12-18T14:22:48;15.85;;;11.93;;
30335;SDS011;17142;47.990;7.846;2022-12-18T14:28:25;19.83;;;11.48;;
30335;SDS011;17142;47.990;7.846;2022-12-18T14:30:38;13.93;;;8.98;;
30335;SDS011;17142;47.990;7.846;2022-12-18T14:33:12;19.17;;;10.85;;
30335;SDS011;17142;47.990;7.846;2022-12-18T14:35:39;17.15;;;9.65;;
30335;SDS011;17142;47.990;7.846;2022-12-18T14:41:05;16.45;;;11.48;;
30335;SDS011;17142;47.990;7.846;2022-12-18T14:43:41;17.50;;;11.27;;
30335;SDS011;17142;47.990;7.846;2022-12-18T14:48:53;19.30;;;11.18;;
30335;SDS011;17142;47.990;7.846;2022-12-18T14:51:21;19.77;;;11.85;;
30335;SDS011;17142;47.990;7.846;2022-12-18T14:53:53;26.00;;;13.48;;
30335;SDS011;17142;47.990;7.846;2022-12-18T14:56:35;22.60;;;13.20;;
30335;SDS011;17142;47.990;7.846;2022-12-18T14:59:19;25.58;;;14.80;;
30335;SDS011;17142;47.990;7.846;2022-12-18T15:04:40;21.27;;;13.43;;
30335;SDS011;17142;47.990;7.846;2022-12-18T15:09:35;19.50;;;13.80;;
30335;SDS011;17142;47.990;7.846;2022-12-18T15:12:01;26.23;;;13.15;;
30335;SDS011;17142;47.990;7.846;2022-12-18T15:14:40;27.92;;;15.68;;
30335;SDS011;17142;47.990;7.846;2022-12-18T15:17:21;21.40;;;13.80;;
30335;SDS011;17142;47.990;7.846;2022-12-18T15:19:48;21.35;;;14.45;;
30335;SDS011;17142;47.990;7.846;2022-12-18T15:24:55;18.58;;;14.27;;
30335;SDS011;17142;47.990;7.846;2022-12-18T15:27:27;26.73;;;16.55;;
30335;SDS011;17142;47.990;7.846;2022-12-18T15:32:32;23.48;;;15.65;;
30335;SDS011;17142;47.990;7.846;2022-12-18T15:37:43;21.88;;;13.15;;
30335;SDS011;17142;47.990;7.846;2022-12-18T15:40:16;22.55;;;11.43;;
30335;SDS011;17142;47.990;7.846;2022-12-18T15:42:46;19.25;;;13.65;;
30335;SDS011;17142;47.990;7.846;2022-12-18T15:45:31;19.40;;;12.75;;
30335;SDS011;17142;47.990;7.846;2022-12-18T15:47:59;19.65;;;13.02;;
30335;SDS011;17142;47.990;7.846;2022-12-18T15:50:45;25.00;;;15.48;;
30335;SDS011;17142;47.990;7.846;2022-12-18T15:53:13;19.95;;;12.95;;
30335;SDS011;17142;47.990;7.846;2022-12-18T15:55:41;20.47;;;11.87;;
30335;SDS011;17142;47.990;7.846;2022-12-18T15:58:25;19.38;;;13.55;;
30335;SDS011;17142;47.990;7.846;2022-12-18T16:00:51;19.27;;;12.40;;
30335;SDS011;17142;47.990;7.846;2022-12-18T16:03:17;17.23;;;12.07;;
30335;SDS011;17142;47.990;7.846;2022-12-18T16:05:43;19.13;;;13.83;;
30335;SDS011;17142;47.990;7.846;2022-12-18T16:08:10;18.25;;;12.93;;
30335;SDS011;17142;47.990;7.846;2022-12-18T16:10:41;20.17;;;12.77;;
30335;SDS011;17142;47.990;7.846;2022-12-18T16:13:09;24.30;;;13.13;;
30335;SDS011;17142;47.990;7.846;2022-12-18T16:15:36;23.77;;;14.00;;
30335;SDS011;17142;47.990;7.846;2022-12-18T16:18:04;22.38;;;13.75;;
30335;SDS011;17142;47.990;7.846;2022-12-18T16:20:29;24.07;;;16.10;;
30335;SDS011;17142;47.990;7.846;2022-12-18T16:22:55;23.90;;;14.07;;
30335;SDS011;17142;47.990;7.846;2022-12-18T16:25:22;23.40;;;16.27;;
30335;SDS011;17142;47.990;7.846;2022-12-18T16:27:53;26.60;;;16.15;;
30335;SDS011;17142;47.990;7.846;2022-12-18T16:30:22;23.00;;;16.15;;
30335;SDS011;17142;47.990;7.846;2022-12-18T16:32:51;22.35;;;15.00;;
30335;SDS011;17142;47.990;7.846;2022-12-18T16:35:17;24.70;;;18.00;;
30335;SDS011;17142;47.990;7.846;2022-12-18T16:37:43;26.30;;;15.60;;
30335;SDS011;17142;47.990;7.846;2022-12-18T16:40:14;25.00;;;16.63;;
30335;SDS011;17142;47.990;7.846;2022-12-18T16:42:41;23.30;;;16.00;;